DBCOW EDDG-ZZDG
Flight info
| Callsign | DBCOW |
|---|---|
| Flight time | N/A |
| Altitude | |
| Route | |
| Aircraft | PC12 |
Departure
| Time | 2026-04-25 18:15 |
|---|---|
| Airport | Münster Osnabrück Airport (EDDG) |
Arrival
| Time | N/A |
|---|---|
| Airport | ZZDG |
| Time | Latitude | Longitude | Altitude | Speed | Heading |
|---|---|---|---|---|---|
| 2026-04-25 18:14 | 52.14582 | 7.75620 | 1754 ft | 127 kts | 242° |
| 2026-04-25 18:15 | 52.14466 | 7.74303 | 1521 ft | 108 kts | 276° |
| 2026-04-25 18:15 | 52.14378 | 7.73240 | 1059 ft | 90 kts | 265° |
| 2026-04-25 18:15 | 52.14241 | 7.72272 | 745 ft | 88 kts | 254° |
| 2026-04-25 18:15 | 52.14057 | 7.71343 | 509 ft | 82 kts | 255° |
| 2026-04-25 18:16 | 52.13883 | 7.70500 | 319 ft | 76 kts | 256° |
| 2026-04-25 18:16 | 52.13716 | 7.69690 | 212 ft | 75 kts | 253° |
| 2026-04-25 18:16 | 52.13387 | 7.68118 | 196 ft | 95 kts | 251° |
| 2026-04-25 18:17 | 52.13124 | 7.66913 | 494 ft | 124 kts | 252° |
| 2026-04-25 18:17 | 52.13039 | 7.66495 | 711 ft | 128 kts | 253° |
| 2026-04-25 18:17 | 52.12862 | 7.65631 | 1064 ft | 140 kts | 252° |
| 2026-04-25 18:17 | 52.12523 | 7.63401 | 1459 ft | 164 kts | 276° |
| 2026-04-25 18:18 | 52.12795 | 7.62241 | 1639 ft | 170 kts | 305° |
| 2026-04-25 18:18 | 52.13788 | 7.61209 | 1992 ft | 178 kts | 338° |
| 2026-04-25 18:18 | 52.14981 | 7.60648 | 2029 ft | 175 kts | 349° |
| 2026-04-25 18:18 | 52.16125 | 7.61107 | 2242 ft | 180 kts | 30° |
| 2026-04-25 18:19 | 52.16877 | 7.62819 | 2231 ft | 193 kts | 64° |
| 2026-04-25 18:19 | 52.17361 | 7.64890 | 2165 ft | 196 kts | 69° |
| 2026-04-25 18:19 | 52.17821 | 7.67006 | 2055 ft | 199 kts | 68° |
| 2026-04-25 18:19 | 52.18203 | 7.69155 | 2023 ft | 196 kts | 78° |
| 2026-04-25 18:20 | 52.17734 | 7.70840 | 2320 ft | 153 kts | 168° |
| 2026-04-25 18:20 | 52.16982 | 7.70212 | 2149 ft | 122 kts | 254° |
| 2026-04-25 18:20 | 52.17211 | 7.69036 | 1950 ft | 121 kts | 330° |
| 2026-04-25 18:20 | 52.18028 | 7.69320 | 1815 ft | 137 kts | 47° |
| 2026-04-25 18:21 | 52.18307 | 7.70812 | 1635 ft | 145 kts | 80° |
| 2026-04-25 18:21 | 52.18290 | 7.72448 | 1546 ft | 147 kts | 116° |
| 2026-04-25 18:21 | 52.17561 | 7.73514 | 1526 ft | 145 kts | 160° |
| 2026-04-25 18:21 | 52.16626 | 7.74168 | 1425 ft | 146 kts | 162° |
| 2026-04-25 18:22 | 52.15667 | 7.74752 | 1325 ft | 146 kts | 166° |
| 2026-04-25 18:22 | 52.15014 | 7.74766 | 1153 ft | 140 kts | 208° |
| 2026-04-25 18:22 | 52.14413 | 7.73101 | 799 ft | 126 kts | 252° |
| 2026-04-25 18:22 | 52.14148 | 7.71828 | 575 ft | 115 kts | 255° |
| 2026-04-25 18:23 | 52.13909 | 7.70608 | 309 ft | 109 kts | 252° |
| 2026-04-25 18:23 | 52.13615 | 7.69197 | 230 ft | 162 kts | 252° |
| 2026-04-25 18:23 | 52.13200 | 7.67252 | 278 ft | 194 kts | 252° |
| 2026-04-25 18:23 | 52.12486 | 7.65724 | 1114 ft | 149 kts | 209° |
| 2026-04-25 18:24 | 52.11434 | 7.66000 | 982 ft | 166 kts | 159° |
| 2026-04-25 18:24 | 52.10465 | 7.66912 | 1091 ft | 158 kts | 140° |
| 2026-04-25 18:24 | 52.10009 | 7.68511 | 1202 ft | 158 kts | 92° |
| 2026-04-25 18:24 | 52.10164 | 7.70330 | 1257 ft | 165 kts | 88° |
| 2026-04-25 18:25 | 52.09513 | 7.71382 | 1345 ft | 140 kts | 195° |
| 2026-04-25 18:25 | 52.09169 | 7.70296 | 1408 ft | 121 kts | 299° |
| 2026-04-25 18:25 | 52.09973 | 7.70016 | 1464 ft | 140 kts | 24° |
| 2026-04-25 18:25 | 52.10520 | 7.71329 | 1517 ft | 142 kts | 65° |
| 2026-04-25 18:26 | 52.10903 | 7.72770 | 1465 ft | 139 kts | 62° |
| 2026-04-25 18:26 | 52.11328 | 7.74277 | 1409 ft | 153 kts | 62° |
| 2026-04-25 18:26 | 52.11809 | 7.75861 | 1344 ft | 155 kts | 49° |
| 2026-04-25 18:26 | 52.12693 | 7.76472 | 1448 ft | 137 kts | 344° |
| 2026-04-25 18:27 | 52.13573 | 7.76160 | 1337 ft | 121 kts | 341° |
| 2026-04-25 18:27 | 52.14373 | 7.75752 | 1181 ft | 117 kts | 336° |
| 2026-04-25 18:27 | 52.14856 | 7.74805 | 982 ft | 120 kts | 266° |
| 2026-04-25 18:27 | 52.14567 | 7.73615 | 845 ft | 105 kts | 248° |
| 2026-04-25 18:28 | 52.14341 | 7.72653 | 703 ft | 87 kts | 251° |
| 2026-04-25 18:28 | 52.14132 | 7.71692 | 533 ft | 91 kts | 253° |
| 2026-04-25 18:28 | 52.13941 | 7.70772 | 360 ft | 82 kts | 253° |